sensor_id;sensor_type;location;lat;lon;timestamp;pressure;altitude;pressure_sealevel;temperature;humidity
78800;BME280;68148;55.328;86.106;2023-04-24T00:01:06;99831.47;;;3.73;49.36
78800;BME280;68148;55.328;86.106;2023-04-24T00:03:32;99824.97;;;3.87;48.35
78800;BME280;68148;55.328;86.106;2023-04-24T00:05:58;99822.47;;;3.85;48.17
78800;BME280;68148;55.328;86.106;2023-04-24T00:08:24;99810.13;;;3.87;48.86
78800;BME280;68148;55.328;86.106;2023-04-24T00:10:50;99812.59;;;3.89;48.50
78800;BME280;68148;55.328;86.106;2023-04-24T00:13:16;99810.78;;;3.89;47.98
78800;BME280;68148;55.328;86.106;2023-04-24T00:15:42;99805.56;;;3.89;48.37
78800;BME280;68148;55.328;86.106;2023-04-24T00:18:07;99795.94;;;3.99;47.70
78800;BME280;68148;55.328;86.106;2023-04-24T00:20:34;99798.13;;;4.04;47.20
78800;BME280;68148;55.328;86.106;2023-04-24T00:22:59;99795.47;;;4.14;47.46
78800;BME280;68148;55.328;86.106;2023-04-24T00:25:25;99791.09;;;4.05;47.25
78800;BME280;68148;55.328;86.106;2023-04-24T00:27:51;99793.13;;;4.11;47.20
78800;BME280;68148;55.328;86.106;2023-04-24T00:30:17;99791.06;;;4.14;46.97
78800;BME280;68148;55.328;86.106;2023-04-24T00:32:43;99790.69;;;4.09;46.18
78800;BME280;68148;55.328;86.106;2023-04-24T00:35:08;99796.34;;;4.05;46.64
78800;BME280;68148;55.328;86.106;2023-04-24T00:37:34;99792.03;;;4.13;46.67
78800;BME280;68148;55.328;86.106;2023-04-24T00:40:00;99793.41;;;4.17;46.45
78800;BME280;68148;55.328;86.106;2023-04-24T00:42:26;99788.44;;;4.24;46.31
78800;BME280;68148;55.328;86.106;2023-04-24T00:44:52;99789.00;;;4.18;46.23
78800;BME280;68148;55.328;86.106;2023-04-24T00:47:18;99781.25;;;4.26;46.26
78800;BME280;68148;55.328;86.106;2023-04-24T00:49:45;99784.03;;;4.24;45.96
78800;BME280;68148;55.328;86.106;2023-04-24T00:52:11;99778.00;;;4.14;45.93
78800;BME280;68148;55.328;86.106;2023-04-24T00:54:36;99758.72;;;4.25;45.71
78800;BME280;68148;55.328;86.106;2023-04-24T00:57:03;99767.16;;;4.37;44.69
78800;BME280;68148;55.328;86.106;2023-04-24T00:59:31;99763.63;;;4.38;45.09
78800;BME280;68148;55.328;86.106;2023-04-24T01:01:58;99763.66;;;4.56;44.44
78800;BME280;68148;55.328;86.106;2023-04-24T01:04:24;99763.94;;;4.70;43.84
78800;BME280;68148;55.328;86.106;2023-04-24T01:06:50;99755.75;;;4.83;42.92
78800;BME280;68148;55.328;86.106;2023-04-24T01:09:16;99756.56;;;4.84;42.66
78800;BME280;68148;55.328;86.106;2023-04-24T01:11:43;99749.94;;;4.89;42.28
78800;BME280;68148;55.328;86.106;2023-04-24T01:14:09;99746.19;;;4.92;42.10
78800;BME280;68148;55.328;86.106;2023-04-24T01:16:35;99755.53;;;4.94;41.38
78800;BME280;68148;55.328;86.106;2023-04-24T01:19:02;99750.66;;;4.99;41.79
78800;BME280;68148;55.328;86.106;2023-04-24T01:21:29;99745.00;;;5.04;41.12
78800;BME280;68148;55.328;86.106;2023-04-24T01:23:55;99733.63;;;5.13;40.78
78800;BME280;68148;55.328;86.106;2023-04-24T01:26:22;99736.38;;;5.30;39.50
78800;BME280;68148;55.328;86.106;2023-04-24T01:28:49;99742.13;;;5.33;39.78
78800;BME280;68148;55.328;86.106;2023-04-24T01:31:15;99738.38;;;5.36;39.93
78800;BME280;68148;55.328;86.106;2023-04-24T01:33:42;99727.94;;;5.36;39.88
78800;BME280;68148;55.328;86.106;2023-04-24T01:36:10;99734.09;;;5.35;39.52
78800;BME280;68148;55.328;86.106;2023-04-24T01:38:37;99721.34;;;5.32;39.06
78800;BME280;68148;55.328;86.106;2023-04-24T01:41:03;99723.34;;;5.38;39.35
78800;BME280;68148;55.328;86.106;2023-04-24T01:43:29;99719.28;;;5.43;39.06
78800;BME280;68148;55.328;86.106;2023-04-24T01:45:55;99716.41;;;5.55;39.05
78800;BME280;68148;55.328;86.106;2023-04-24T01:48:21;99712.31;;;5.52;38.28
78800;BME280;68148;55.328;86.106;2023-04-24T01:50:47;99711.06;;;5.64;37.97
78800;BME280;68148;55.328;86.106;2023-04-24T01:53:13;99717.53;;;5.78;38.69
78800;BME280;68148;55.328;86.106;2023-04-24T01:55:40;99715.31;;;5.91;37.93
78800;BME280;68148;55.328;86.106;2023-04-24T01:58:06;99707.97;;;5.95;37.74
78800;BME280;68148;55.328;86.106;2023-04-24T02:00:33;99718.09;;;5.90;36.63
78800;BME280;68148;55.328;86.106;2023-04-24T02:02:58;99702.63;;;6.05;36.89
78800;BME280;68148;55.328;86.106;2023-04-24T02:05:24;99699.22;;;6.12;36.67
78800;BME280;68148;55.328;86.106;2023-04-24T02:07:50;99701.66;;;6.06;37.33
78800;BME280;68148;55.328;86.106;2023-04-24T02:10:16;99692.94;;;5.97;36.76
78800;BME280;68148;55.328;86.106;2023-04-24T02:12:41;99687.09;;;6.11;36.55
78800;BME280;68148;55.328;86.106;2023-04-24T02:15:08;99693.31;;;6.10;35.79
78800;BME280;68148;55.328;86.106;2023-04-24T02:17:34;99689.41;;;6.14;35.70
78800;BME280;68148;55.328;86.106;2023-04-24T02:20:00;99674.00;;;6.11;36.03
78800;BME280;68148;55.328;86.106;2023-04-24T02:22:26;99669.88;;;6.00;35.95
78800;BME280;68148;55.328;86.106;2023-04-24T02:24:52;99665.50;;;6.17;35.71
78800;BME280;68148;55.328;86.106;2023-04-24T02:27:18;99658.50;;;6.42;35.75
78800;BME280;68148;55.328;86.106;2023-04-24T02:29:44;99664.56;;;6.26;35.07
78800;BME280;68148;55.328;86.106;2023-04-24T02:32:10;99652.31;;;6.43;35.52
78800;BME280;68148;55.328;86.106;2023-04-24T02:34:35;99646.25;;;6.51;35.76
78800;BME280;68148;55.328;86.106;2023-04-24T02:37:01;99648.53;;;6.62;35.41
78800;BME280;68148;55.328;86.106;2023-04-24T02:39:27;99649.22;;;6.72;35.07
78800;BME280;68148;55.328;86.106;2023-04-24T02:41:53;99649.03;;;6.74;35.28
78800;BME280;68148;55.328;86.106;2023-04-24T02:44:20;99641.00;;;6.84;34.85
78800;BME280;68148;55.328;86.106;2023-04-24T02:46:45;99627.25;;;6.90;35.16
78800;BME280;68148;55.328;86.106;2023-04-24T02:49:11;99634.13;;;6.83;35.33
78800;BME280;68148;55.328;86.106;2023-04-24T02:51:37;99619.38;;;6.82;35.50
78800;BME280;68148;55.328;86.106;2023-04-24T02:54:03;99622.16;;;6.96;35.50
78800;BME280;68148;55.328;86.106;2023-04-24T02:56:29;99616.38;;;7.09;34.70
78800;BME280;68148;55.328;86.106;2023-04-24T02:58:55;99602.47;;;7.09;34.98
78800;BME280;68148;55.328;86.106;2023-04-24T03:01:20;99596.34;;;7.24;35.13
78800;BME280;68148;55.328;86.106;2023-04-24T03:03:46;99587.72;;;7.55;33.99
78800;BME280;68148;55.328;86.106;2023-04-24T03:06:12;99581.78;;;7.61;33.81
78800;BME280;68148;55.328;86.106;2023-04-24T03:08:38;99577.53;;;7.60;34.48
78800;BME280;68148;55.328;86.106;2023-04-24T03:11:04;99575.59;;;7.54;34.21
78800;BME280;68148;55.328;86.106;2023-04-24T03:13:30;99567.31;;;7.65;33.90
78800;BME280;68148;55.328;86.106;2023-04-24T03:15:55;99571.91;;;7.71;33.16
78800;BME280;68148;55.328;86.106;2023-04-24T03:18:21;99549.50;;;7.84;33.50
78800;BME280;68148;55.328;86.106;2023-04-24T03:20:47;99543.94;;;7.78;34.08
78800;BME280;68148;55.328;86.106;2023-04-24T03:23:13;99540.78;;;7.83;34.23
78800;BME280;68148;55.328;86.106;2023-04-24T03:25:39;99537.25;;;7.99;34.57
78800;BME280;68148;55.328;86.106;2023-04-24T03:28:05;99534.66;;;7.91;34.49
78800;BME280;68148;55.328;86.106;2023-04-24T03:30:31;99521.06;;;7.56;35.16
78800;BME280;68148;55.328;86.106;2023-04-24T03:32:58;99521.97;;;7.40;36.00
78800;BME280;68148;55.328;86.106;2023-04-24T03:35:23;99521.66;;;7.66;35.78
78800;BME280;68148;55.328;86.106;2023-04-24T03:37:49;99513.50;;;7.61;35.61
78800;BME280;68148;55.328;86.106;2023-04-24T03:40:15;99510.78;;;8.00;34.83
78800;BME280;68148;55.328;86.106;2023-04-24T03:42:41;99509.91;;;8.08;34.71
78800;BME280;68148;55.328;86.106;2023-04-24T03:45:07;99499.44;;;8.46;33.80
78800;BME280;68148;55.328;86.106;2023-04-24T03:47:33;99489.97;;;8.74;33.50
78800;BME280;68148;55.328;86.106;2023-04-24T03:49:59;99476.09;;;8.95;32.98
78800;BME280;68148;55.328;86.106;2023-04-24T03:52:24;99477.25;;;9.22;31.96
78800;BME280;68148;55.328;86.106;2023-04-24T03:54:50;99469.97;;;9.24;32.13
78800;BME280;68148;55.328;86.106;2023-04-24T03:57:16;99477.59;;;9.34;32.24
78800;BME280;68148;55.328;86.106;2023-04-24T03:59:42;99479.25;;;9.20;31.99
78800;BME280;68148;55.328;86.106;2023-04-24T04:02:08;99474.22;;;9.40;32.14
78800;BME280;68148;55.328;86.106;2023-04-24T04:04:34;99471.56;;;9.55;32.11
78800;BME280;68148;55.328;86.106;2023-04-24T04:06:59;99473.53;;;9.68;31.89
78800;BME280;68148;55.328;86.106;2023-04-24T04:09:25;99475.22;;;9.75;31.69
78800;BME280;68148;55.328;86.106;2023-04-24T04:11:51;99475.22;;;9.97;30.99
78800;BME280;68148;55.328;86.106;2023-04-24T04:14:17;99475.53;;;9.87;31.70
78800;BME280;68148;55.328;86.106;2023-04-24T04:16:43;99476.22;;;9.96;32.26
78800;BME280;68148;55.328;86.106;2023-04-24T04:19:08;99468.41;;;10.02;32.50
78800;BME280;68148;55.328;86.106;2023-04-24T04:21:35;99459.84;;;10.00;32.28
78800;BME280;68148;55.328;86.106;2023-04-24T04:24:00;99451.09;;;10.21;32.52
78800;BME280;68148;55.328;86.106;2023-04-24T04:26:26;99454.53;;;10.43;32.49
78800;BME280;68148;55.328;86.106;2023-04-24T04:28:52;99435.53;;;10.55;32.04
78800;BME280;68148;55.328;86.106;2023-04-24T04:31:19;99438.78;;;10.50;32.95
78800;BME280;68148;55.328;86.106;2023-04-24T04:33:45;99424.13;;;10.82;32.02
78800;BME280;68148;55.328;86.106;2023-04-24T04:36:11;99424.25;;;10.67;31.87
78800;BME280;68148;55.328;86.106;2023-04-24T04:38:36;99423.28;;;10.75;31.86
78800;BME280;68148;55.328;86.106;2023-04-24T04:41:03;99412.53;;;10.76;32.45
78800;BME280;68148;55.328;86.106;2023-04-24T04:43:29;99408.50;;;10.81;31.70
78800;BME280;68148;55.328;86.106;2023-04-24T04:45:55;99395.50;;;10.86;32.23
78800;BME280;68148;55.328;86.106;2023-04-24T04:48:21;99387.47;;;11.07;32.08
78800;BME280;68148;55.328;86.106;2023-04-24T04:50:47;99389.94;;;11.22;32.21
78800;BME280;68148;55.328;86.106;2023-04-24T04:53:13;99376.97;;;11.34;32.10
78800;BME280;68148;55.328;86.106;2023-04-24T04:55:39;99376.59;;;11.37;32.14
78800;BME280;68148;55.328;86.106;2023-04-24T04:58:04;99368.66;;;11.37;32.53
78800;BME280;68148;55.328;86.106;2023-04-24T05:00:30;99371.31;;;11.43;32.47
78800;BME280;68148;55.328;86.106;2023-04-24T05:02:57;99357.53;;;11.61;31.59
78800;BME280;68148;55.328;86.106;2023-04-24T05:05:23;99353.47;;;11.78;31.97
78800;BME280;68148;55.328;86.106;2023-04-24T05:07:48;99352.66;;;12.11;31.58
78800;BME280;68148;55.328;86.106;2023-04-24T05:10:14;99344.50;;;12.19;31.37
78800;BME280;68148;55.328;86.106;2023-04-24T05:12:40;99333.69;;;12.34;31.11
78800;BME280;68148;55.328;86.106;2023-04-24T05:15:06;99330.41;;;12.45;31.14
78800;BME280;68148;55.328;86.106;2023-04-24T05:17:32;99319.22;;;12.37;31.37
78800;BME280;68148;55.328;86.106;2023-04-24T05:19:58;99320.84;;;12.44;31.03
78800;BME280;68148;55.328;86.106;2023-04-24T05:22:24;99310.28;;;12.38;31.14
78800;BME280;68148;55.328;86.106;2023-04-24T05:24:49;99306.63;;;12.32;31.69
78800;BME280;68148;55.328;86.106;2023-04-24T05:27:15;99297.16;;;12.63;30.68
78800;BME280;68148;55.328;86.106;2023-04-24T05:29:41;99290.28;;;12.55;30.55
78800;BME280;68148;55.328;86.106;2023-04-24T05:32:07;99282.50;;;12.60;30.20
78800;BME280;68148;55.328;86.106;2023-04-24T05:34:32;99276.75;;;12.70;30.51
78800;BME280;68148;55.328;86.106;2023-04-24T05:36:58;99269.91;;;12.56;30.00
78800;BME280;68148;55.328;86.106;2023-04-24T05:39:24;99253.53;;;12.72;30.09
78800;BME280;68148;55.328;86.106;2023-04-24T05:41:50;99256.47;;;12.89;29.87
78800;BME280;68148;55.328;86.106;2023-04-24T05:44:15;99254.63;;;12.96;29.44
78800;BME280;68148;55.328;86.106;2023-04-24T05:46:41;99260.88;;;13.01;29.58
78800;BME280;68148;55.328;86.106;2023-04-24T05:49:07;99244.16;;;13.08;29.48
78800;BME280;68148;55.328;86.106;2023-04-24T05:51:32;99236.91;;;13.21;29.39
78800;BME280;68148;55.328;86.106;2023-04-24T05:53:58;99223.09;;;13.19;29.47
78800;BME280;68148;55.328;86.106;2023-04-24T05:56:24;99216.16;;;13.43;29.59
78800;BME280;68148;55.328;86.106;2023-04-24T05:58:50;99215.38;;;13.61;29.49
78800;BME280;68148;55.328;86.106;2023-04-24T06:01:16;99200.53;;;13.78;29.13
78800;BME280;68148;55.328;86.106;2023-04-24T06:03:42;99192.28;;;13.87;28.70
78800;BME280;68148;55.328;86.106;2023-04-24T06:06:08;99184.28;;;13.93;28.50
78800;BME280;68148;55.328;86.106;2023-04-24T06:08:35;99174.03;;;13.97;28.41
78800;BME280;68148;55.328;86.106;2023-04-24T06:11:01;99177.47;;;14.16;28.34
78800;BME280;68148;55.328;86.106;2023-04-24T06:13:29;99170.25;;;14.23;28.20
78800;BME280;68148;55.328;86.106;2023-04-24T06:15:55;99170.38;;;14.28;28.16
78800;BME280;68148;55.328;86.106;2023-04-24T06:18:20;99162.53;;;14.51;27.97
78800;BME280;68148;55.328;86.106;2023-04-24T06:20:46;99155.88;;;14.61;27.99
78800;BME280;68148;55.328;86.106;2023-04-24T06:23:12;99148.41;;;14.69;28.59
78800;BME280;68148;55.328;86.106;2023-04-24T06:25:39;99147.25;;;14.89;28.20
78800;BME280;68148;55.328;86.106;2023-04-24T06:28:05;99137.69;;;14.88;28.08
78800;BME280;68148;55.328;86.106;2023-04-24T06:30:31;99144.72;;;14.82;27.36
78800;BME280;68148;55.328;86.106;2023-04-24T06:32:57;99127.75;;;15.07;27.75
78800;BME280;68148;55.328;86.106;2023-04-24T06:35:23;99124.06;;;15.31;27.79
78800;BME280;68148;55.328;86.106;2023-04-24T06:37:49;99114.94;;;15.39;27.26
78800;BME280;68148;55.328;86.106;2023-04-24T06:40:16;99122.47;;;15.30;26.74
78800;BME280;68148;55.328;86.106;2023-04-24T06:42:42;99110.09;;;15.36;26.39
78800;BME280;68148;55.328;86.106;2023-04-24T06:45:08;99098.03;;;15.45;26.38
78800;BME280;68148;55.328;86.106;2023-04-24T06:47:34;99107.19;;;15.37;24.91
78800;BME280;68148;55.328;86.106;2023-04-24T06:49:59;99103.59;;;15.43;24.59
78800;BME280;68148;55.328;86.106;2023-04-24T06:52:26;99092.28;;;15.48;24.59
78800;BME280;68148;55.328;86.106;2023-04-24T06:54:51;99091.13;;;15.67;24.54
78800;BME280;68148;55.328;86.106;2023-04-24T06:57:18;99081.91;;;15.87;23.81
78800;BME280;68148;55.328;86.106;2023-04-24T06:59:43;99090.06;;;15.68;24.27
78800;BME280;68148;55.328;86.106;2023-04-24T07:02:09;99085.09;;;16.00;23.65
78800;BME280;68148;55.328;86.106;2023-04-24T07:04:35;99067.19;;;15.96;23.68
78800;BME280;68148;55.328;86.106;2023-04-24T07:07:02;99065.56;;;15.95;23.78
78800;BME280;68148;55.328;86.106;2023-04-24T07:09:28;99067.50;;;15.99;24.23
78800;BME280;68148;55.328;86.106;2023-04-24T07:11:54;99062.06;;;16.06;23.67
78800;BME280;68148;55.328;86.106;2023-04-24T07:14:20;99060.75;;;16.09;22.97
78800;BME280;68148;55.328;86.106;2023-04-24T07:16:46;99053.34;;;16.11;22.96
78800;BME280;68148;55.328;86.106;2023-04-24T07:19:13;99049.97;;;16.15;23.50
78800;BME280;68148;55.328;86.106;2023-04-24T07:21:39;99038.66;;;16.08;22.96
78800;BME280;68148;55.328;86.106;2023-04-24T07:24:05;99027.34;;;16.01;22.83
78800;BME280;68148;55.328;86.106;2023-04-24T07:26:31;99018.47;;;15.95;22.85
78800;BME280;68148;55.328;86.106;2023-04-24T07:28:57;99028.16;;;16.01;22.65
78800;BME280;68148;55.328;86.106;2023-04-24T07:31:23;99013.16;;;15.95;22.58
78800;BME280;68148;55.328;86.106;2023-04-24T07:33:49;99003.66;;;15.99;22.72
78800;BME280;68148;55.328;86.106;2023-04-24T07:36:15;99012.81;;;15.92;23.08
78800;BME280;68148;55.328;86.106;2023-04-24T07:38:47;99006.81;;;16.13;22.69
78800;BME280;68148;55.328;86.106;2023-04-24T07:41:14;99004.31;;;16.07;22.72
78800;BME280;68148;55.328;86.106;2023-04-24T07:43:40;98999.31;;;16.10;22.26
78800;BME280;68148;55.328;86.106;2023-04-24T07:46:07;99002.78;;;16.11;22.78
78800;BME280;68148;55.328;86.106;2023-04-24T07:48:33;98978.72;;;16.22;22.59
78800;BME280;68148;55.328;86.106;2023-04-24T07:50:59;98991.50;;;16.37;22.34
78800;BME280;68148;55.328;86.106;2023-04-24T07:53:25;98989.97;;;16.41;22.53
78800;BME280;68148;55.328;86.106;2023-04-24T07:55:56;98979.00;;;16.38;22.49
78800;BME280;68148;55.328;86.106;2023-04-24T07:58:23;98975.44;;;16.49;22.78
78800;BME280;68148;55.328;86.106;2023-04-24T08:00:48;98964.53;;;16.50;23.03
78800;BME280;68148;55.328;86.106;2023-04-24T08:03:14;98960.00;;;16.51;23.28
78800;BME280;68148;55.328;86.106;2023-04-24T08:05:40;98960.72;;;16.63;22.69
78800;BME280;68148;55.328;86.106;2023-04-24T08:08:06;98959.13;;;16.62;22.85
78800;BME280;68148;55.328;86.106;2023-04-24T08:10:32;98954.94;;;16.66;22.45
78800;BME280;68148;55.328;86.106;2023-04-24T08:12:59;98941.44;;;16.56;22.57
78800;BME280;68148;55.328;86.106;2023-04-24T08:15:24;98940.25;;;16.47;23.01
78800;BME280;68148;55.328;86.106;2023-04-24T08:17:50;98926.59;;;16.60;22.99
78800;BME280;68148;55.328;86.106;2023-04-24T08:20:16;98922.84;;;16.78;22.88
78800;BME280;68148;55.328;86.106;2023-04-24T08:22:43;98915.88;;;16.94;22.72
78800;BME280;68148;55.328;86.106;2023-04-24T08:25:10;98919.16;;;17.01;23.07
78800;BME280;68148;55.328;86.106;2023-04-24T08:27:36;98908.06;;;17.09;23.27
78800;BME280;68148;55.328;86.106;2023-04-24T08:30:04;98899.28;;;17.36;21.77
78800;BME280;68148;55.328;86.106;2023-04-24T08:32:30;98896.19;;;17.44;20.73
78800;BME280;68148;55.328;86.106;2023-04-24T08:34:57;98888.22;;;17.49;20.16
78800;BME280;68148;55.328;86.106;2023-04-24T08:37:23;98900.16;;;17.41;19.56
78800;BME280;68148;55.328;86.106;2023-04-24T08:39:50;98887.97;;;17.23;19.22
78800;BME280;68148;55.328;86.106;2023-04-24T08:42:17;98891.44;;;17.24;19.42
78800;BME280;68148;55.328;86.106;2023-04-24T08:44:44;98888.84;;;17.07;18.42
78800;BME280;68148;55.328;86.106;2023-04-24T08:47:11;98881.78;;;16.96;18.84
78800;BME280;68148;55.328;86.106;2023-04-24T08:49:38;98873.06;;;17.00;19.52
78800;BME280;68148;55.328;86.106;2023-04-24T08:52:07;98873.47;;;17.14;19.30
78800;BME280;68148;55.328;86.106;2023-04-24T08:54:35;98865.06;;;17.27;18.80
78800;BME280;68148;55.328;86.106;2023-04-24T08:57:02;98864.16;;;17.44;19.53
78800;BME280;68148;55.328;86.106;2023-04-24T08:59:29;98850.78;;;17.39;19.10
78800;BME280;68148;55.328;86.106;2023-04-24T09:01:56;98847.09;;;17.45;19.25
78800;BME280;68148;55.328;86.106;2023-04-24T09:04:23;98850.88;;;17.49;19.08
78800;BME280;68148;55.328;86.106;2023-04-24T09:06:55;98838.53;;;17.43;19.09
78800;BME280;68148;55.328;86.106;2023-04-24T09:09:22;98848.84;;;17.61;19.18
78800;BME280;68148;55.328;86.106;2023-04-24T09:11:52;98833.31;;;17.53;19.27
78800;BME280;68148;55.328;86.106;2023-04-24T09:14:19;98831.91;;;17.45;19.24
78800;BME280;68148;55.328;86.106;2023-04-24T09:16:44;98835.28;;;17.36;19.67
78800;BME280;68148;55.328;86.106;2023-04-24T09:19:10;98825.59;;;17.30;20.08
78800;BME280;68148;55.328;86.106;2023-04-24T09:21:36;98814.84;;;17.19;19.97
78800;BME280;68148;55.328;86.106;2023-04-24T09:24:05;98820.84;;;17.05;20.63
78800;BME280;68148;55.328;86.106;2023-04-24T09:26:34;98814.63;;;16.99;20.71
78800;BME280;68148;55.328;86.106;2023-04-24T09:29:00;98816.44;;;16.71;20.39
78800;BME280;68148;55.328;86.106;2023-04-24T09:31:27;98821.03;;;16.54;20.94
78800;BME280;68148;55.328;86.106;2023-04-24T09:34:01;98825.84;;;16.35;21.17
78800;BME280;68148;55.328;86.106;2023-04-24T09:36:30;98826.84;;;16.12;21.78
78800;BME280;68148;55.328;86.106;2023-04-24T09:39:00;98827.47;;;15.97;22.17
78800;BME280;68148;55.328;86.106;2023-04-24T09:41:27;98824.56;;;15.82;22.71
78800;BME280;68148;55.328;86.106;2023-04-24T09:43:57;98825.03;;;15.79;23.24
78800;BME280;68148;55.328;86.106;2023-04-24T09:46:30;98830.22;;;15.57;23.98
78800;BME280;68148;55.328;86.106;2023-04-24T09:48:56;98823.06;;;15.58;24.25
78800;BME280;68148;55.328;86.106;2023-04-24T09:51:35;98817.97;;;15.39;25.56
78800;BME280;68148;55.328;86.106;2023-04-24T09:54:02;98827.13;;;15.32;26.24
78800;BME280;68148;55.328;86.106;2023-04-24T09:56:32;98831.78;;;15.24;26.72
78800;BME280;68148;55.328;86.106;2023-04-24T09:59:05;98837.50;;;15.16;27.13
78800;BME280;68148;55.328;86.106;2023-04-24T10:01:32;98834.56;;;15.01;27.65
78800;BME280;68148;55.328;86.106;2023-04-24T10:04:00;98834.94;;;14.93;28.29
78800;BME280;68148;55.328;86.106;2023-04-24T10:06:35;98832.81;;;14.78;29.76
78800;BME280;68148;55.328;86.106;2023-04-24T10:09:02;98825.53;;;14.73;30.33
78800;BME280;68148;55.328;86.106;2023-04-24T10:11:29;98827.63;;;14.60;31.83
78800;BME280;68148;55.328;86.106;2023-04-24T10:13:56;98828.22;;;14.50;32.05
78800;BME280;68148;55.328;86.106;2023-04-24T10:16:22;98823.50;;;14.52;32.09
78800;BME280;68148;55.328;86.106;2023-04-24T10:18:48;98811.94;;;14.58;32.00
78800;BME280;68148;55.328;86.106;2023-04-24T10:21:16;98800.28;;;14.47;32.70
78800;BME280;68148;55.328;86.106;2023-04-24T10:23:42;98802.13;;;14.59;32.35
78800;BME280;68148;55.328;86.106;2023-04-24T10:26:13;98793.69;;;14.62;33.12
78800;BME280;68148;55.328;86.106;2023-04-24T10:28:39;98794.13;;;14.70;33.02
78800;BME280;68148;55.328;86.106;2023-04-24T10:31:07;98784.38;;;14.88;33.22
78800;BME280;68148;55.328;86.106;2023-04-24T10:33:35;98778.84;;;15.06;32.79
78800;BME280;68148;55.328;86.106;2023-04-24T10:36:01;98777.91;;;15.12;32.98
78800;BME280;68148;55.328;86.106;2023-04-24T10:38:28;98773.44;;;15.01;33.71
78800;BME280;68148;55.328;86.106;2023-04-24T10:41:11;98773.03;;;15.38;33.62
78800;BME280;68148;55.328;86.106;2023-04-24T10:43:39;98769.34;;;15.72;33.17
78800;BME280;68148;55.328;86.106;2023-04-24T10:46:06;98760.84;;;15.59;33.39
78800;BME280;68148;55.328;86.106;2023-04-24T10:48:33;98743.38;;;16.01;33.04
78800;BME280;68148;55.328;86.106;2023-04-24T10:50:59;98739.22;;;16.27;32.46
78800;BME280;68148;55.328;86.106;2023-04-24T10:53:29;98739.13;;;16.22;32.59
78800;BME280;68148;55.328;86.106;2023-04-24T10:56:06;98723.59;;;16.14;33.10
78800;BME280;68148;55.328;86.106;2023-04-24T10:58:52;98719.94;;;15.98;33.53
78800;BME280;68148;55.328;86.106;2023-04-24T11:01:31;98716.56;;;16.03;33.81
78800;BME280;68148;55.328;86.106;2023-04-24T11:03:59;98711.25;;;15.64;34.30
78800;BME280;68148;55.328;86.106;2023-04-24T11:06:36;98711.47;;;15.12;36.08
78800;BME280;68148;55.328;86.106;2023-04-24T11:09:07;98696.66;;;15.33;35.12
78800;BME280;68148;55.328;86.106;2023-04-24T11:11:34;98705.44;;;15.17;35.11
78800;BME280;68148;55.328;86.106;2023-04-24T11:19:00;98677.94;;;15.28;34.62
78800;BME280;68148;55.328;86.106;2023-04-24T11:24:25;98675.22;;;15.23;34.05
78800;BME280;68148;55.328;86.106;2023-04-24T11:27:15;98672.34;;;15.08;34.11
78800;BME280;68148;55.328;86.106;2023-04-24T11:32:24;98658.31;;;15.12;34.23
78800;BME280;68148;55.328;86.106;2023-04-24T11:37:22;98640.59;;;15.18;33.81
78800;BME280;68148;55.328;86.106;2023-04-24T11:39:56;98637.94;;;15.18;33.73
78800;BME280;68148;55.328;86.106;2023-04-24T11:42:23;98641.53;;;15.28;33.70
78800;BME280;68148;55.328;86.106;2023-04-24T11:44:51;98621.59;;;15.26;33.82
78800;BME280;68148;55.328;86.106;2023-04-24T11:47:17;98608.75;;;15.62;33.30
78800;BME280;68148;55.328;86.106;2023-04-24T11:49:43;98606.03;;;15.73;33.17
78800;BME280;68148;55.328;86.106;2023-04-24T11:52:09;98597.72;;;15.70;32.80
78800;BME280;68148;55.328;86.106;2023-04-24T11:54:35;98587.91;;;15.70;32.64
78800;BME280;68148;55.328;86.106;2023-04-24T11:57:04;98583.22;;;15.39;32.60
78800;BME280;68148;55.328;86.106;2023-04-24T11:59:35;98574.69;;;15.20;32.86
78800;BME280;68148;55.328;86.106;2023-04-24T12:02:01;98574.63;;;15.15;32.55
78800;BME280;68148;55.328;86.106;2023-04-24T12:04:27;98570.34;;;14.92;33.01
78800;BME280;68148;55.328;86.106;2023-04-24T12:07:03;98569.59;;;14.80;33.48
78800;BME280;68148;55.328;86.106;2023-04-24T12:09:40;98561.81;;;14.56;33.67
78800;BME280;68148;55.328;86.106;2023-04-24T12:12:06;98548.97;;;14.36;34.02
78800;BME280;68148;55.328;86.106;2023-04-24T12:14:32;98547.44;;;14.40;33.89
78800;BME280;68148;55.328;86.106;2023-04-24T12:16:57;98540.03;;;14.42;33.50
78800;BME280;68148;55.328;86.106;2023-04-24T12:19:23;98532.97;;;14.48;33.67
78800;BME280;68148;55.328;86.106;2023-04-24T12:22:03;98536.09;;;14.28;34.08
78800;BME280;68148;55.328;86.106;2023-04-24T12:24:29;98533.28;;;14.18;34.19
78800;BME280;68148;55.328;86.106;2023-04-24T12:26:55;98532.34;;;14.12;34.83
78800;BME280;68148;55.328;86.106;2023-04-24T12:29:20;98538.16;;;14.09;34.62
78800;BME280;68148;55.328;86.106;2023-04-24T12:31:46;98532.31;;;14.24;34.32
78800;BME280;68148;55.328;86.106;2023-04-24T12:34:22;98541.66;;;14.26;34.33
78800;BME280;68148;55.328;86.106;2023-04-24T12:36:49;98519.84;;;14.24;34.53
78800;BME280;68148;55.328;86.106;2023-04-24T12:39:18;98530.28;;;14.14;35.06
78800;BME280;68148;55.328;86.106;2023-04-24T12:42:11;98532.13;;;14.14;35.34
78800;BME280;68148;55.328;86.106;2023-04-24T12:44:37;98524.50;;;14.34;34.61
78800;BME280;68148;55.328;86.106;2023-04-24T12:47:03;98504.00;;;14.29;34.54
78800;BME280;68148;55.328;86.106;2023-04-24T12:49:31;98509.06;;;14.31;34.11
78800;BME280;68148;55.328;86.106;2023-04-24T12:51:57;98509.81;;;14.26;34.71
78800;BME280;68148;55.328;86.106;2023-04-24T12:54:24;98504.25;;;14.28;34.32
78800;BME280;68148;55.328;86.106;2023-04-24T12:56:50;98506.31;;;14.26;34.47
78800;BME280;68148;55.328;86.106;2023-04-24T12:59:16;98498.53;;;14.19;34.46
78800;BME280;68148;55.328;86.106;2023-04-24T13:01:41;98496.84;;;14.13;34.40
78800;BME280;68148;55.328;86.106;2023-04-24T13:04:07;98494.09;;;14.08;34.21